createdAt,value
2023-04-24T00:00:15.896Z,99459.85
2023-04-24T00:03:04.438Z,99460.91
2023-04-24T00:05:32.284Z,99456.59
2023-04-24T00:08:00.078Z,99456.24
2023-04-24T00:10:28.005Z,99454.25
2023-04-24T00:12:55.837Z,99452.11
2023-04-24T00:15:23.808Z,99450.80
2023-04-24T00:17:51.845Z,99450.96
2023-04-24T00:20:20.162Z,99450.66
2023-04-24T00:22:47.964Z,99446.63
2023-04-24T00:25:15.772Z,99451.32
2023-04-24T00:27:43.433Z,99444.77
2023-04-24T00:30:11.495Z,99442.45
2023-04-24T00:32:39.263Z,99439.61
2023-04-24T00:35:07.488Z,99435.29
2023-04-24T00:37:35.279Z,99436.70
2023-04-24T00:40:04.133Z,99432.58
2023-04-24T00:42:32.292Z,99429.05
2023-04-24T00:45:01.976Z,99429.08
2023-04-24T00:47:29.980Z,99429.92
2023-04-24T00:49:57.710Z,99425.56
2023-04-24T00:52:26.595Z,99424.79
2023-04-24T00:54:55.480Z,99423.49
2023-04-24T00:57:24.867Z,99428.73
2023-04-24T00:59:54.452Z,99430.36
2023-04-24T01:02:25.508Z,99426.56
2023-04-24T01:04:53.467Z,99427.77
2023-04-24T01:07:22.245Z,99428.42
2023-04-24T01:09:52.308Z,99429.71
2023-04-24T01:12:20.778Z,99431.29
2023-04-24T01:14:48.524Z,99430.02
2023-04-24T01:17:16.658Z,99423.84
2023-04-24T01:19:47.513Z,99423.66
2023-04-24T01:22:15.871Z,99425.89
2023-04-24T01:24:44.321Z,99422.22
2023-04-24T01:27:12.805Z,99425.07
2023-04-24T01:29:41.127Z,99423.94
2023-04-24T01:32:09.236Z,99424.71
2023-04-24T01:34:38.174Z,99426.84
2023-04-24T01:37:06.504Z,99428.56
2023-04-24T01:39:34.626Z,99428.25
2023-04-24T01:42:05.268Z,99429.40
2023-04-24T01:44:34.315Z,99425.34
2023-04-24T01:47:03.003Z,99419.32
2023-04-24T01:49:30.858Z,99420.42
2023-04-24T01:51:58.749Z,99420.02
2023-04-24T01:54:26.465Z,99417.31
2023-04-24T01:56:54.199Z,99414.27
2023-04-24T01:59:24.460Z,99411.94
2023-04-24T02:01:52.245Z,99409.81
2023-04-24T02:04:20.258Z,99404.02
2023-04-24T02:06:48.176Z,99400.08
2023-04-24T02:09:15.927Z,99402.09
2023-04-24T02:11:43.703Z,99399.92
2023-04-24T02:14:11.624Z,99396.59
2023-04-24T02:16:39.555Z,99396.36
2023-04-24T02:19:07.457Z,99396.33
2023-04-24T02:21:35.556Z,99392.65
2023-04-24T02:24:03.477Z,99388.15
2023-04-24T02:26:32.960Z,99387.33
2023-04-24T02:29:01.134Z,99383.56
2023-04-24T02:31:29.976Z,99380.00
2023-04-24T02:33:57.775Z,99373.52
2023-04-24T02:36:25.566Z,99371.34
2023-04-24T02:38:53.391Z,99366.11
2023-04-24T02:41:21.168Z,99364.81
2023-04-24T02:43:48.948Z,99364.73
2023-04-24T02:46:16.862Z,99362.44
2023-04-24T02:48:44.732Z,99355.89
2023-04-24T02:51:13.058Z,99352.64
2023-04-24T02:53:41.057Z,99356.70
2023-04-24T02:56:09.335Z,99366.88
2023-04-24T02:58:37.122Z,99370.26
2023-04-24T03:01:05.835Z,99369.77
2023-04-24T03:03:33.723Z,99368.48
2023-04-24T03:06:01.697Z,99369.77
2023-04-24T03:08:30.082Z,99372.16
2023-04-24T03:10:57.866Z,99373.83
2023-04-24T03:13:25.803Z,99371.64
2023-04-24T03:15:54.544Z,99368.86
2023-04-24T03:18:22.347Z,99364.30
2023-04-24T03:20:51.174Z,99361.61
2023-04-24T03:23:18.980Z,99361.61
2023-04-24T03:25:46.778Z,99361.94
2023-04-24T03:28:14.542Z,99361.13
2023-04-24T03:30:42.489Z,99362.37
2023-04-24T03:33:10.949Z,99364.08
2023-04-24T03:35:38.823Z,99367.47
2023-04-24T03:38:06.704Z,99369.85
2023-04-24T03:40:34.717Z,99374.15
2023-04-24T03:43:02.673Z,99371.95
2023-04-24T03:45:30.561Z,99371.13
2023-04-24T03:47:58.411Z,99371.50
2023-04-24T03:50:27.807Z,99371.06
2023-04-24T03:52:56.377Z,99368.94
2023-04-24T03:55:24.128Z,99371.84
2023-04-24T03:57:53.543Z,99373.08
2023-04-24T04:00:22.142Z,99377.01
2023-04-24T04:02:50.056Z,99375.35
2023-04-24T04:05:18.242Z,99375.52
2023-04-24T04:07:46.095Z,99378.12
2023-04-24T04:10:13.957Z,99374.08
2023-04-24T04:12:41.800Z,99373.11
2023-04-24T04:15:09.906Z,99379.88
2023-04-24T04:17:39.178Z,99378.16
2023-04-24T04:20:10.563Z,99375.48
2023-04-24T04:22:38.657Z,99380.52
2023-04-24T04:25:08.586Z,99375.30
2023-04-24T04:27:37.802Z,99377.20
2023-04-24T04:43:27.291Z,99385.29
2023-04-24T04:56:35.231Z,99381.63
2023-04-24T04:59:27.123Z,99379.09
2023-04-24T05:13:50.578Z,99374.60
2023-04-24T05:16:17.699Z,99371.22
2023-04-24T05:18:51.983Z,99372.27
2023-04-24T05:21:26.608Z,99370.63
2023-04-24T05:23:58.544Z,99370.98
2023-04-24T05:28:05.954Z,99368.38
2023-04-24T05:30:34.510Z,99367.98
2023-04-24T05:33:02.546Z,99371.35
2023-04-24T05:35:30.887Z,99369.08
2023-04-24T05:37:58.688Z,99369.98
2023-04-24T05:40:26.430Z,99373.36
2023-04-24T05:42:54.435Z,99366.59
2023-04-24T05:45:22.257Z,99370.61
2023-04-24T05:48:08.772Z,99377.42
2023-04-24T05:50:37.276Z,99375.98
2023-04-24T05:55:27.144Z,99372.65
2023-04-24T05:58:33.296Z,99370.11
2023-04-24T06:01:49.411Z,99370.57
2023-04-24T06:05:33.726Z,99370.13
2023-04-24T06:09:00.252Z,99369.15
2023-04-24T06:12:52.601Z,99365.25
2023-04-24T06:15:22.813Z,99364.94
2023-04-24T06:17:51.077Z,99366.13
2023-04-24T06:20:21.510Z,99363.67
2023-04-24T06:22:52.223Z,99356.41
2023-04-24T06:25:20.277Z,99351.29
2023-04-24T06:27:48.057Z,99357.50
2023-04-24T06:30:24.103Z,99351.40
2023-04-24T06:33:18.716Z,99348.17
2023-04-24T06:35:47.663Z,99346.23
2023-04-24T06:38:17.899Z,99345.15
2023-04-24T06:40:46.392Z,99342.95
2023-04-24T06:43:16.560Z,99342.03
2023-04-24T06:45:45.277Z,99340.27
2023-04-24T06:48:36.140Z,99343.64
2023-04-24T06:51:07.843Z,99342.63
2023-04-24T06:53:36.168Z,99345.73
2023-04-24T06:56:05.075Z,99346.67
2023-04-24T06:58:32.836Z,99348.56
2023-04-24T07:01:00.626Z,99347.48
2023-04-24T07:03:32.141Z,99347.48
2023-04-24T07:06:00.251Z,99348.38
2023-04-24T07:08:28.024Z,99349.02
2023-04-24T07:10:57.088Z,99343.99
2023-04-24T07:13:25.147Z,99348.67
2023-04-24T07:15:55.200Z,99348.29
2023-04-24T07:18:23.830Z,99344.16
2023-04-24T07:20:54.458Z,99339.33
2023-04-24T07:23:49.643Z,99336.73
2023-04-24T07:55:41.310Z,99328.90
2023-04-24T08:51:23.867Z,99317.55
2023-04-24T09:18:44.311Z,99322.52
2023-04-24T09:31:58.436Z,99317.73
2023-04-24T09:34:28.102Z,99314.48
2023-04-24T09:36:56.495Z,99310.20
2023-04-24T09:39:24.542Z,99308.30
2023-04-24T09:41:58.631Z,99307.07
2023-04-24T09:44:28.611Z,99308.14
2023-04-24T09:46:59.418Z,99304.31
2023-04-24T09:49:28.047Z,99304.25
2023-04-24T09:52:07.719Z,99300.95
2023-04-24T09:54:37.869Z,99299.98
2023-04-24T09:57:09.259Z,99302.40
2023-04-24T09:59:43.580Z,99302.46
2023-04-24T10:02:20.201Z,99300.40
2023-04-24T10:05:00.304Z,99301.24
2023-04-24T10:07:28.695Z,99297.11
2023-04-24T10:09:56.675Z,99296.49
2023-04-24T10:12:26.081Z,99299.20
2023-04-24T10:14:54.424Z,99292.57
2023-04-24T10:17:22.999Z,99297.25
2023-04-24T10:19:51.266Z,99288.75
2023-04-24T10:22:19.351Z,99288.13
2023-04-24T10:24:49.639Z,99283.50
2023-04-24T10:27:18.320Z,99281.33
2023-04-24T10:29:50.071Z,99278.89
2023-04-24T10:32:17.935Z,99273.45
2023-04-24T10:34:48.405Z,99270.96
2023-04-24T10:37:17.578Z,99267.58
2023-04-24T10:39:49.760Z,99263.79
2023-04-24T10:42:20.636Z,99258.98
2023-04-24T10:44:50.374Z,99258.29
2023-04-24T10:47:18.333Z,99259.41
2023-04-24T10:49:49.115Z,99258.02
2023-04-24T10:52:18.446Z,99259.13
2023-04-24T10:54:50.610Z,99256.94
2023-04-24T10:57:26.531Z,99253.94
2023-04-24T11:00:19.321Z,99252.55
2023-04-24T11:02:54.130Z,99249.35
2023-04-24T11:05:23.914Z,99249.02
2023-04-24T11:08:13.146Z,99247.30
2023-04-24T11:10:45.694Z,99248.98
2023-04-24T11:13:19.003Z,99244.80
2023-04-24T11:22:19.838Z,99241.14
2023-04-24T11:25:03.359Z,99241.25
2023-04-24T11:27:49.505Z,99239.34
2023-04-24T11:30:26.009Z,99236.14
2023-04-24T11:33:08.254Z,99240.66
2023-04-24T11:35:53.113Z,99233.23
2023-04-24T11:38:32.493Z,99223.17
2023-04-24T11:41:12.116Z,99231.20
2023-04-24T11:43:50.102Z,99225.87
2023-04-24T11:46:41.672Z,99215.14
2023-04-24T11:49:14.628Z,99216.02
2023-04-24T11:51:53.501Z,99216.30
2023-04-24T11:54:25.069Z,99216.64
2023-04-24T11:56:59.746Z,99217.45
2023-04-24T11:59:29.119Z,99216.33
2023-04-24T12:01:57.114Z,99209.52
2023-04-24T12:04:26.001Z,99208.91
2023-04-24T12:18:20.961Z,99201.88
2023-04-24T12:20:50.100Z,99199.95
2023-04-24T12:25:21.243Z,99192.77
2023-04-24T12:28:17.138Z,99189.71
2023-04-24T12:40:46.801Z,99172.94
2023-04-24T12:43:17.907Z,99180.29
2023-04-24T12:45:52.529Z,99173.45
2023-04-24T12:48:22.979Z,99171.15
2023-04-24T12:50:51.189Z,99167.74
2023-04-24T12:53:43.542Z,99163.33
2023-04-24T12:56:11.833Z,99168.04
2023-04-24T12:58:44.844Z,99190.29
2023-04-24T13:01:14.819Z,99182.33
2023-04-24T13:03:46.515Z,99187.03
2023-04-24T13:06:17.080Z,99186.39
2023-04-24T13:08:48.990Z,99191.06
2023-04-24T13:11:37.199Z,99181.69
2023-04-24T13:14:06.042Z,99174.79
2023-04-24T13:16:34.883Z,99179.35
2023-04-24T13:19:03.346Z,99169.71
2023-04-24T13:21:35.294Z,99174.43
2023-04-24T13:24:06.040Z,99180.81
2023-04-24T13:26:34.214Z,99173.33
2023-04-24T13:29:02.117Z,99180.90
2023-04-24T13:31:31.878Z,99192.21
2023-04-24T13:33:59.879Z,99185.16
2023-04-24T13:36:30.293Z,99190.23
2023-04-24T13:39:00.418Z,99188.02
2023-04-24T13:41:30.027Z,99197.63
2023-04-24T13:43:58.018Z,99206.59
2023-04-24T13:46:26.061Z,99211.63
2023-04-24T13:48:56.504Z,99219.66
2023-04-24T13:51:28.666Z,99214.32
2023-04-24T13:53:56.848Z,99219.76
2023-04-24T13:56:25.028Z,99219.60
2023-04-24T13:58:57.306Z,99212.91
2023-04-24T14:01:29.136Z,99208.27
2023-04-24T14:03:58.564Z,99200.81
2023-04-24T14:06:27.058Z,99202.08
2023-04-24T14:08:55.312Z,99192.17
2023-04-24T14:11:24.704Z,99194.45
2023-04-24T14:13:55.986Z,99177.75
2023-04-24T14:16:26.714Z,99169.11
2023-04-24T14:18:56.219Z,99167.34
2023-04-24T14:21:26.318Z,99163.74
2023-04-24T14:23:54.302Z,99151.77
2023-04-24T14:26:22.971Z,99146.64
2023-04-24T14:28:58.056Z,99134.40
2023-04-24T14:31:34.517Z,99127.80
2023-04-24T14:34:02.803Z,99127.52
2023-04-24T14:36:33.066Z,99125.82
2023-04-24T14:39:02.176Z,99117.90
2023-04-24T14:41:38.753Z,99120.58
2023-04-24T14:44:09.108Z,99131.60
2023-04-24T14:46:43.869Z,99130.88
2023-04-24T14:49:15.752Z,99129.59
2023-04-24T14:58:39.975Z,99122.95
2023-04-24T15:01:11.887Z,99116.52
2023-04-24T15:03:41.928Z,99115.14
2023-04-24T15:06:17.003Z,99109.15
2023-04-24T15:08:43.495Z,99102.72
2023-04-24T15:11:13.579Z,99105.16
2023-04-24T15:13:42.744Z,99109.02
2023-04-24T15:16:09.452Z,99109.60
2023-04-24T15:18:39.468Z,99105.18
2023-04-24T15:21:06.369Z,99093.70
2023-04-24T15:23:34.115Z,99086.14
2023-04-24T15:26:03.446Z,99087.87
2023-04-24T15:28:29.946Z,99082.63
2023-04-24T15:35:26.366Z,99072.19
2023-04-24T15:37:56.808Z,99072.02
2023-04-24T15:40:29.720Z,99075.23
2023-04-24T15:42:59.659Z,99076.73
2023-04-24T15:45:28.321Z,99074.63
2023-04-24T15:47:56.615Z,99067.87
2023-04-24T15:50:24.932Z,99058.33
2023-04-24T15:53:06.733Z,99054.64
2023-04-24T15:55:37.612Z,99050.30
2023-04-24T15:58:27.648Z,99056.45
2023-04-24T16:00:55.711Z,99064.21
2023-04-24T16:03:26.014Z,99062.48
2023-04-24T16:05:54.126Z,99062.80
2023-04-24T16:08:33.500Z,99059.79
2023-04-24T16:11:01.874Z,99059.27
2023-04-24T16:13:34.979Z,99060.15
2023-04-24T16:16:03.163Z,99057.71
2023-04-24T16:18:31.793Z,99057.40
2023-04-24T16:21:01.443Z,99054.58
2023-04-24T16:23:30.371Z,99060.13
2023-04-24T16:26:00.891Z,99058.10
2023-04-24T16:28:31.301Z,99054.27
2023-04-24T16:31:17.376Z,99047.64
2023-04-24T16:33:52.531Z,99042.86
2023-04-24T16:36:25.000Z,99038.83
2023-04-24T16:38:53.055Z,99032.70
2023-04-24T16:41:21.928Z,99033.23
2023-04-24T16:43:55.951Z,99031.82
2023-04-24T16:46:30.276Z,99031.12
2023-04-24T16:49:02.011Z,99030.84
2023-04-24T16:51:36.112Z,99031.93
2023-04-24T16:54:04.845Z,99034.82
2023-04-24T16:56:34.077Z,99028.55
2023-04-24T16:59:05.857Z,99025.39
2023-04-24T17:01:35.373Z,99022.95
2023-04-24T17:04:06.957Z,99026.90
2023-04-24T17:06:35.650Z,99026.54
2023-04-24T17:09:04.554Z,99024.83
2023-04-24T17:11:33.335Z,99025.06
2023-04-24T17:14:06.408Z,99023.73
2023-04-24T17:16:34.541Z,99020.27
2023-04-24T17:19:02.930Z,99021.65
2023-04-24T17:21:31.919Z,99016.64
2023-04-24T17:23:59.924Z,99020.55
2023-04-24T17:26:28.772Z,99020.84
2023-04-24T17:28:57.457Z,99021.55
2023-04-24T17:31:25.282Z,99022.30
2023-04-24T17:33:53.190Z,99018.73
2023-04-24T17:36:21.045Z,99017.46
2023-04-24T17:38:49.584Z,99016.98
2023-04-24T17:41:17.936Z,99017.33
2023-04-24T17:43:45.953Z,99019.44
2023-04-24T17:46:14.128Z,99020.63
2023-04-24T17:48:42.197Z,99022.16
2023-04-24T17:51:10.819Z,99019.56
2023-04-24T17:53:39.640Z,99021.28
2023-04-24T17:56:07.838Z,99022.39
2023-04-24T17:58:36.022Z,99017.77
2023-04-24T18:01:03.971Z,99015.25
2023-04-24T18:03:31.862Z,99016.90
2023-04-24T18:06:04.264Z,99009.58
2023-04-24T18:11:15.189Z,99012.60
2023-04-24T18:13:43.219Z,99014.52
2023-04-24T18:16:11.019Z,99015.07
2023-04-24T18:18:39.010Z,99014.48
2023-04-24T18:21:06.965Z,99017.17
2023-04-24T18:23:35.608Z,99019.70
2023-04-24T18:26:03.599Z,99021.67
2023-04-24T18:28:34.773Z,99026.20
2023-04-24T18:31:02.578Z,99026.20
2023-04-24T18:33:31.780Z,99027.02
2023-04-24T18:36:01.325Z,99027.01
2023-04-24T18:38:29.587Z,99028.14
2023-04-24T18:40:57.389Z,99031.02
2023-04-24T18:43:25.672Z,99031.61
2023-04-24T18:45:53.566Z,99032.23
2023-04-24T18:48:22.296Z,99033.05
2023-04-24T18:50:53.290Z,99032.34
2023-04-24T18:53:21.854Z,99037.91
2023-04-24T18:55:49.761Z,99038.61
2023-04-24T18:58:18.273Z,99039.06
2023-04-24T19:00:46.358Z,99040.20
2023-04-24T19:03:16.129Z,99040.50
2023-04-24T19:05:44.022Z,99039.85
2023-04-24T19:08:12.933Z,99042.52
2023-04-24T19:10:40.881Z,99044.98
2023-04-24T19:13:10.140Z,99044.94
2023-04-24T19:15:40.161Z,99043.45
2023-04-24T19:18:07.899Z,99047.86
2023-04-24T19:20:36.035Z,99051.23
2023-04-24T19:23:03.817Z,99051.45
2023-04-24T19:25:31.653Z,99049.67
2023-04-24T19:27:59.427Z,99047.38
2023-04-24T19:30:28.371Z,99046.45
2023-04-24T19:32:56.393Z,99049.47
2023-04-24T19:35:24.542Z,99048.13
2023-04-24T19:41:56.872Z,99046.31
2023-04-24T19:44:26.895Z,99046.71
2023-04-24T19:46:53.276Z,99044.00
2023-04-24T19:49:21.607Z,99046.55
2023-04-24T19:51:48.386Z,99045.06
2023-04-24T19:54:15.400Z,99039.36
2023-04-24T19:56:42.367Z,99038.42
2023-04-24T19:59:08.672Z,99039.09
2023-04-24T20:01:35.212Z,99032.44
2023-04-24T20:04:02.797Z,99025.07
2023-04-24T20:06:30.141Z,99030.07
2023-04-24T20:08:56.655Z,99028.10
2023-04-24T20:11:23.110Z,99027.84
2023-04-24T20:13:50.109Z,99028.83
2023-04-24T20:16:17.386Z,99029.90
2023-04-24T20:18:44.572Z,99040.90
2023-04-24T20:21:10.932Z,99050.50
2023-04-24T20:23:37.236Z,99067.93
2023-04-24T20:26:04.268Z,99070.86
2023-04-24T20:28:30.776Z,99064.20
2023-04-24T20:30:58.429Z,99060.59
2023-04-24T20:33:27.353Z,99061.02
2023-04-24T20:35:54.020Z,99061.20
2023-04-24T20:38:21.820Z,99061.01
2023-04-24T20:43:18.286Z,99062.50
2023-04-24T20:45:44.809Z,99061.58
2023-04-24T20:48:12.238Z,99066.21
2023-04-24T20:50:40.582Z,99062.95
2023-04-24T20:53:09.037Z,99061.05
2023-04-24T20:55:35.881Z,99055.04
2023-04-24T20:58:02.334Z,99056.02
2023-04-24T21:00:29.178Z,99059.40
2023-04-24T21:02:55.708Z,99059.50
2023-04-24T21:05:22.457Z,99055.88
2023-04-24T21:07:51.145Z,99053.91
2023-04-24T21:10:19.028Z,99057.88
2023-04-24T21:12:45.447Z,99057.48
2023-04-24T21:15:11.789Z,99056.25
2023-04-24T21:17:39.174Z,99055.20
2023-04-24T21:20:07.700Z,99055.42
2023-04-24T21:22:35.290Z,99053.92
2023-04-24T21:25:03.041Z,99057.27
2023-04-24T21:27:30.073Z,99061.20
2023-04-24T21:29:56.377Z,99064.41
2023-04-24T21:32:22.864Z,99064.54
2023-04-24T21:34:49.714Z,99067.48
2023-04-24T21:37:16.229Z,99069.38
2023-04-24T21:39:43.629Z,99067.32
2023-04-24T21:42:12.215Z,99067.45
2023-04-24T21:44:38.848Z,99061.40
2023-04-24T21:47:05.672Z,99063.09
2023-04-24T21:49:32.182Z,99064.69
2023-04-24T21:51:58.602Z,99062.21
2023-04-24T21:54:27.243Z,99059.16
2023-04-24T21:56:53.710Z,99064.05
2023-04-24T21:59:20.538Z,99062.45
2023-04-24T22:01:46.940Z,99060.80
2023-04-24T22:04:13.518Z,99062.96
2023-04-24T22:06:40.201Z,99064.05
2023-04-24T22:09:07.078Z,99063.09
2023-04-24T22:11:33.557Z,99060.21
2023-04-24T22:14:00.049Z,99059.22
2023-04-24T22:16:27.750Z,99057.64
2023-04-24T22:18:55.551Z,99060.14
2023-04-24T22:21:22.154Z,99058.73
2023-04-24T22:23:48.963Z,99054.10
2023-04-24T22:26:15.667Z,99056.86
2023-04-24T22:28:42.416Z,99050.96
2023-04-24T22:31:10.257Z,99048.20
2023-04-24T22:33:36.861Z,99053.98
2023-04-24T22:36:03.594Z,99053.13
2023-04-24T22:38:29.970Z,99057.52
2023-04-24T22:40:56.324Z,99057.82
2023-04-24T22:43:22.797Z,99058.58
2023-04-24T22:45:49.501Z,99059.69
2023-04-24T22:48:16.295Z,99060.34
2023-04-24T22:50:42.685Z,99059.48
2023-04-24T22:53:09.234Z,99060.61
2023-04-24T22:55:35.826Z,99064.02
2023-04-24T22:58:02.492Z,99060.17
2023-04-24T23:00:29.261Z,99065.08
2023-04-24T23:02:55.830Z,99064.09
2023-04-24T23:05:24.521Z,99062.98
2023-04-24T23:07:51.847Z,99065.77
2023-04-24T23:10:18.243Z,99061.50
2023-04-24T23:12:44.643Z,99060.81
2023-04-24T23:15:13.874Z,99056.89
2023-04-24T23:17:40.848Z,99061.30
2023-04-24T23:20:09.791Z,99061.48
2023-04-24T23:22:36.120Z,99064.85
2023-04-24T23:25:02.558Z,99064.12
2023-04-24T23:27:28.874Z,99060.23
2023-04-24T23:29:55.270Z,99061.98
2023-04-24T23:32:21.636Z,99058.95
2023-04-24T23:34:48.882Z,99060.60
2023-04-24T23:37:17.288Z,99065.00
2023-04-24T23:39:45.315Z,99062.09
2023-04-24T23:42:11.803Z,99065.45
2023-04-24T23:44:38.659Z,99065.17
2023-04-24T23:47:05.019Z,99065.21
2023-04-24T23:49:31.295Z,99063.29
2023-04-24T23:51:57.726Z,99053.33
2023-04-24T23:54:25.653Z,99044.05
2023-04-24T23:56:52.171Z,99035.71
2023-04-24T23:59:20.910Z,99033.36
